Time;durP1;ratioP1;P1;durP2;ratioP2;P2;SDS_P1;SDS_P2;PMS_P1;PMS_P2;Temp;Humidity;BMP_temperature;BMP_pressure;BME280_temperature;BME280_humidity;BME280_pressure;Samples;Min_cycle;Max_cycle;Signal;HPM_P1;HPM_P2
2024/01/12 00:00:20;;;;;;;60.95;22.15;;;-0.50;99.90;;;;;;5031217;28;20128;-71
2024/01/12 00:02:45;;;;;;;66.72;22.10;;;-0.50;99.90;;;;;;5038322;28;20048;-70
2024/01/12 00:05:11;;;;;;;50.53;21.60;;;-0.50;99.90;;;;;;5029953;28;20073;-71
2024/01/12 00:07:37;;;;;;;55.13;22.75;;;-0.40;99.90;;;;;;5040765;28;20608;-73
2024/01/12 00:10:03;;;;;;;56.03;21.02;;;-0.40;99.90;;;;;;5011711;28;20046;-71
2024/01/12 00:12:29;;;;;;;55.33;21.40;;;-0.30;99.90;;;;;;5030980;28;20154;-71
2024/01/12 00:14:55;;;;;;;57.13;22.55;;;-0.30;99.90;;;;;;5037829;28;20157;-71
2024/01/12 00:17:20;;;;;;;52.28;21.00;;;-0.30;99.90;;;;;;5036008;28;20041;-71
2024/01/12 00:19:46;;;;;;;56.10;21.75;;;-0.30;99.90;;;;;;5030403;28;20033;-71
2024/01/12 00:22:12;;;;;;;52.30;20.92;;;-0.30;99.90;;;;;;5046172;28;20061;-70
2024/01/12 00:24:37;;;;;;;51.80;19.20;;;-0.20;99.90;;;;;;5038927;28;20108;-71
2024/01/12 00:27:03;;;;;;;51.58;20.33;;;-0.20;99.90;;;;;;5036389;28;20452;-71
2024/01/12 00:29:29;;;;;;;46.03;18.58;;;-0.20;99.90;;;;;;5029478;28;20107;-68
2024/01/12 00:31:55;;;;;;;55.25;20.02;;;-0.10;99.90;;;;;;5031385;28;20050;-71
2024/01/12 00:34:21;;;;;;;56.15;19.45;;;-0.10;99.90;;;;;;5032487;28;20496;-71
2024/01/12 00:36:48;;;;;;;50.28;18.42;;;-0.10;99.90;;;;;;5029044;28;20030;-71
2024/01/12 00:39:15;;;;;;;52.03;19.92;;;0.00;99.90;;;;;;5012902;28;20116;-70
2024/01/12 00:41:41;;;;;;;47.75;18.45;;;0.00;99.90;;;;;;5039360;28;20115;-70
2024/01/12 00:44:07;;;;;;;53.97;18.52;;;0.00;99.90;;;;;;5028209;28;20108;-70
2024/01/12 00:46:33;;;;;;;52.95;19.05;;;0.10;99.90;;;;;;5032618;28;20147;-71
2024/01/12 00:48:59;;;;;;;57.72;20.20;;;0.10;99.90;;;;;;5036986;28;20041;-71
2024/01/12 00:51:24;;;;;;;49.65;18.05;;;0.10;99.90;;;;;;5013160;28;20041;-70
2024/01/12 00:53:50;;;;;;;46.95;18.05;;;0.10;99.90;;;;;;5035380;28;20041;-71
2024/01/12 00:56:16;;;;;;;46.92;18.33;;;0.10;99.90;;;;;;5039036;28;20044;-71
2024/01/12 00:58:42;;;;;;;49.17;18.15;;;0.10;99.90;;;;;;5028531;28;20045;-70
2024/01/12 01:01:09;;;;;;;49.33;17.35;;;0.20;99.90;;;;;;5035931;28;20080;-70
2024/01/12 01:03:36;;;;;;;47.05;17.55;;;0.20;99.90;;;;;;5046584;28;20037;-71
2024/01/12 01:06:02;;;;;;;41.13;16.85;;;0.20;99.90;;;;;;5046410;28;20072;-71
2024/01/12 01:08:28;;;;;;;48.03;17.23;;;0.20;99.90;;;;;;5037447;28;20072;-71
2024/01/12 01:10:53;;;;;;;46.50;16.70;;;0.20;99.90;;;;;;5037719;28;20044;-71
2024/01/12 01:13:19;;;;;;;50.22;17.67;;;0.20;99.90;;;;;;5034696;28;20588;-71
2024/01/12 01:15:45;;;;;;;40.05;16.70;;;0.20;99.90;;;;;;5043801;28;20124;-70
2024/01/12 01:18:10;;;;;;;46.22;14.77;;;0.20;99.90;;;;;;5024568;28;20116;-70
2024/01/12 01:20:37;;;;;;;43.35;15.35;;;0.30;99.90;;;;;;5045447;28;20121;-70
2024/01/12 01:23:03;;;;;;;41.65;15.90;;;0.30;99.90;;;;;;5036166;28;20064;-70
2024/01/12 01:25:28;;;;;;;40.22;15.05;;;0.30;99.90;;;;;;5040204;28;20076;-71
2024/01/12 01:27:54;;;;;;;43.85;16.77;;;0.30;99.90;;;;;;5038798;28;20053;-71
2024/01/12 01:30:20;;;;;;;48.90;16.65;;;0.30;99.90;;;;;;5036073;28;20684;-71
2024/01/12 01:32:48;;;;;;;36.80;14.65;;;0.30;99.90;;;;;;5036487;28;22425;-71
2024/01/12 01:35:14;;;;;;;43.05;15.45;;;0.40;99.90;;;;;;5039351;28;20045;-71
2024/01/12 01:37:40;;;;;;;37.20;14.43;;;0.40;99.90;;;;;;5040942;28;20033;-71
2024/01/12 01:40:08;;;;;;;34.88;15.38;;;0.40;99.90;;;;;;5020539;28;20127;-71
2024/01/12 01:42:34;;;;;;;31.02;13.02;;;0.40;99.90;;;;;;5050550;28;20461;-71
2024/01/12 01:45:01;;;;;;;32.75;12.93;;;0.50;99.90;;;;;;5041378;28;20044;-71
2024/01/12 01:47:27;;;;;;;33.35;12.05;;;0.50;99.90;;;;;;5023575;28;20037;-69
2024/01/12 01:49:53;;;;;;;29.30;11.75;;;0.50;99.90;;;;;;5035909;28;20436;-71
2024/01/12 01:52:25;;;;;;;35.55;11.95;;;0.50;99.90;;;;;;5041162;28;20065;-71
2024/01/12 01:54:55;;;;;;;31.45;11.98;;;0.50;99.90;;;;;;5018871;28;20040;-71
2024/01/12 01:57:21;;;;;;;31.05;12.20;;;0.60;99.90;;;;;;5019336;28;20038;-70
2024/01/12 01:59:47;;;;;;;29.33;11.52;;;0.60;99.90;;;;;;5031617;28;20045;-70
2024/01/12 02:02:12;;;;;;;24.90;11.43;;;0.60;99.90;;;;;;5045754;28;20432;-70
2024/01/12 02:04:38;;;;;;;35.13;12.00;;;0.60;99.90;;;;;;5044970;28;20455;-70
2024/01/12 02:07:04;;;;;;;34.90;12.40;;;0.60;99.90;;;;;;5039741;28;20067;-71
2024/01/12 02:09:32;;;;;;;31.88;13.35;;;0.70;99.90;;;;;;5033675;28;20049;-69
2024/01/12 02:11:58;;;;;;;27.02;12.88;;;0.70;99.90;;;;;;5039659;28;20057;-71
2024/01/12 02:14:24;;;;;;;31.15;11.70;;;0.70;99.90;;;;;;5041988;28;20481;-70
2024/01/12 02:16:50;;;;;;;25.90;10.93;;;0.70;99.90;;;;;;5037876;28;20090;-70
2024/01/12 02:19:16;;;;;;;30.63;12.73;;;0.70;99.90;;;;;;5038389;28;20057;-70
2024/01/12 02:21:42;;;;;;;25.23;10.57;;;0.80;99.90;;;;;;5032219;28;20047;-70
2024/01/12 02:24:07;;;;;;;26.02;10.48;;;0.80;99.90;;;;;;5040207;28;20767;-69
2024/01/12 02:26:33;;;;;;;21.67;10.93;;;0.80;99.90;;;;;;5029284;28;20036;-70
2024/01/12 02:29:00;;;;;;;29.35;11.65;;;0.80;99.90;;;;;;5037274;28;20062;-70
2024/01/12 02:31:26;;;;;;;24.52;10.77;;;0.80;99.90;;;;;;5036305;28;20057;-70
2024/01/12 02:33:52;;;;;;;29.95;11.85;;;0.80;99.90;;;;;;5041760;28;20033;-69
2024/01/12 02:36:18;;;;;;;30.27;10.68;;;0.80;99.90;;;;;;5020113;28;20029;-68
2024/01/12 02:38:50;;;;;;;25.13;10.02;;;0.80;99.90;;;;;;5032878;28;20497;-69
2024/01/12 02:41:16;;;;;;;21.13;10.02;;;0.80;99.90;;;;;;5029312;28;20029;-69
2024/01/12 02:43:41;;;;;;;21.27;9.95;;;0.90;99.90;;;;;;5035094;28;20041;-70
2024/01/12 02:46:07;;;;;;;17.92;9.48;;;0.90;99.90;;;;;;5034321;28;20436;-69
2024/01/12 02:48:32;;;;;;;25.95;10.65;;;0.90;99.90;;;;;;5043292;28;20033;-70
2024/01/12 02:50:58;;;;;;;22.73;9.73;;;1.00;99.90;;;;;;5032348;28;20060;-70
2024/01/12 02:53:24;;;;;;;24.15;9.88;;;1.00;99.90;;;;;;5039380;28;20041;-69
2024/01/12 02:55:49;;;;;;;21.30;9.15;;;1.00;99.90;;;;;;5039276;28;20046;-69
2024/01/12 02:58:15;;;;;;;20.02;9.15;;;1.10;99.90;;;;;;5036276;28;20037;-70
2024/01/12 03:00:41;;;;;;;21.35;9.15;;;1.00;99.90;;;;;;5032066;28;20038;-70
2024/01/12 03:03:06;;;;;;;24.08;9.57;;;1.10;99.90;;;;;;5032874;28;20041;-70
2024/01/12 03:05:32;;;;;;;28.00;9.65;;;1.10;99.90;;;;;;5031721;28;20128;-70
2024/01/12 03:07:58;;;;;;;24.63;9.70;;;1.10;99.90;;;;;;5030601;28;20103;-70
2024/01/12 03:10:24;;;;;;;20.08;9.25;;;1.10;99.90;;;;;;5035657;28;20657;-70
2024/01/12 03:12:49;;;;;;;22.02;10.48;;;1.10;99.90;;;;;;5042085;28;20028;-70
2024/01/12 03:15:15;;;;;;;23.73;9.55;;;1.10;99.90;;;;;;5031130;28;20128;-70
2024/01/12 03:17:41;;;;;;;31.83;10.85;;;1.10;99.90;;;;;;5030949;28;22424;-70
2024/01/12 03:20:08;;;;;;;22.58;8.77;;;1.10;99.90;;;;;;5045120;28;20108;-70
2024/01/12 03:22:34;;;;;;;19.50;8.77;;;1.10;99.90;;;;;;5009688;28;23050;-70
2024/01/12 03:25:00;;;;;;;23.67;8.95;;;1.10;99.90;;;;;;5030518;28;20091;-69
2024/01/12 03:27:27;;;;;;;23.00;8.75;;;1.10;99.90;;;;;;5032774;28;20063;-67
2024/01/12 03:29:52;;;;;;;23.40;10.27;;;1.10;99.90;;;;;;5027205;28;20085;-69
2024/01/12 03:32:19;;;;;;;21.80;8.88;;;1.10;99.90;;;;;;5030430;28;20137;-69
2024/01/12 03:34:45;;;;;;;23.60;9.50;;;1.10;99.90;;;;;;5028059;28;20095;-69
2024/01/12 03:37:10;;;;;;;22.92;9.57;;;1.20;99.90;;;;;;5037061;28;20423;-70
2024/01/12 03:39:36;;;;;;;28.25;9.63;;;1.10;99.90;;;;;;5032792;28;20060;-70
2024/01/12 03:42:01;;;;;;;22.15;9.27;;;1.20;99.90;;;;;;5034305;28;20118;-70
2024/01/12 03:44:27;;;;;;;22.33;8.40;;;1.20;99.90;;;;;;5014383;28;20084;-70
2024/01/12 03:46:52;;;;;;;21.50;8.88;;;1.20;99.90;;;;;;5044667;28;20028;-70
2024/01/12 03:49:18;;;;;;;15.68;8.18;;;1.20;99.90;;;;;;5038352;28;20112;-70
2024/01/12 03:51:47;;;;;;;17.15;8.55;;;1.10;99.90;;;;;;5039475;28;20044;-69
2024/01/12 03:54:12;;;;;;;30.42;8.57;;;1.10;99.90;;;;;;5031057;28;20053;-70
2024/01/12 03:56:38;;;;;;;17.63;7.78;;;1.10;99.90;;;;;;5040288;28;20033;-68
2024/01/12 03:59:04;;;;;;;16.00;7.47;;;0.90;99.90;;;;;;5037447;28;20045;-70
2024/01/12 04:01:29;;;;;;;21.00;7.65;;;0.80;99.90;;;;;;5045684;28;20115;-69
2024/01/12 04:03:55;;;;;;;22.65;7.55;;;0.70;99.90;;;;;;5037675;28;20069;-70
2024/01/12 04:06:21;;;;;;;19.40;8.30;;;0.60;99.90;;;;;;5035249;28;20075;-69
2024/01/12 04:08:46;;;;;;;14.98;7.35;;;0.50;99.90;;;;;;5014039;28;20622;-69
2024/01/12 04:11:22;;;;;;;18.35;7.10;;;0.40;99.90;;;;;;5023191;28;20099;-69
2024/01/12 04:13:48;;;;;;;15.18;7.13;;;0.30;99.90;;;;;;5046225;28;20047;-69
2024/01/12 04:16:13;;;;;;;17.92;7.97;;;0.30;99.90;;;;;;5031247;28;20026;-69
2024/01/12 04:18:39;;;;;;;17.23;7.43;;;0.20;99.90;;;;;;5035895;28;20107;-69
2024/01/12 04:21:05;;;;;;;18.23;7.63;;;0.20;99.90;;;;;;5031188;28;20039;-68
2024/01/12 04:23:31;;;;;;;19.80;8.23;;;0.30;99.90;;;;;;5039364;28;20040;-69
2024/01/12 04:25:57;;;;;;;19.55;7.50;;;0.30;99.90;;;;;;5022997;28;20063;-70
2024/01/12 04:28:22;;;;;;;19.73;8.25;;;0.40;99.90;;;;;;5016108;28;20038;-67
2024/01/12 04:30:48;;;;;;;18.48;7.72;;;0.40;99.90;;;;;;5034948;28;20513;-68
2024/01/12 04:33:14;;;;;;;17.27;7.88;;;0.50;99.90;;;;;;5031572;28;20030;-69
2024/01/12 04:35:40;;;;;;;20.00;7.25;;;0.50;99.90;;;;;;5028262;28;20037;-68
2024/01/12 04:38:06;;;;;;;18.00;7.70;;;0.60;99.90;;;;;;5028079;28;20052;-69
2024/01/12 04:40:31;;;;;;;18.65;7.47;;;0.60;99.90;;;;;;5038956;28;20493;-69
2024/01/12 04:42:57;;;;;;;15.98;8.02;;;0.60;99.90;;;;;;5032795;28;20064;-69
2024/01/12 04:45:23;;;;;;;17.02;7.68;;;0.60;99.90;;;;;;5031591;28;20041;-69
2024/01/12 04:47:48;;;;;;;17.77;7.65;;;0.60;99.90;;;;;;5038760;28;20094;-69
2024/01/12 04:50:14;;;;;;;19.10;7.28;;;0.60;99.90;;;;;;5035558;28;20064;-69
2024/01/12 04:52:39;;;;;;;20.85;7.05;;;0.60;99.90;;;;;;5026114;28;21009;-69
2024/01/12 04:55:05;;;;;;;23.15;8.15;;;0.60;99.90;;;;;;5030003;28;20048;-68
2024/01/12 04:57:31;;;;;;;17.15;7.50;;;0.70;99.90;;;;;;5034890;28;20127;-72
2024/01/12 04:59:57;;;;;;;16.65;7.78;;;0.70;99.90;;;;;;5033768;28;20041;-68
2024/01/12 05:02:22;;;;;;;19.48;7.85;;;0.80;99.90;;;;;;5027929;28;20087;-68
2024/01/12 05:04:48;;;;;;;18.60;7.47;;;0.80;99.90;;;;;;5030216;28;20477;-69
2024/01/12 05:07:13;;;;;;;16.77;7.13;;;0.80;99.90;;;;;;5027393;28;20123;-69
2024/01/12 05:09:39;;;;;;;20.17;6.90;;;0.80;99.90;;;;;;5010662;28;20033;-69
2024/01/12 05:12:05;;;;;;;23.42;7.65;;;0.90;99.90;;;;;;5028782;28;20037;-69
2024/01/12 05:14:34;;;;;;;14.55;7.00;;;0.90;99.90;;;;;;5014542;28;20060;-69
2024/01/12 05:16:59;;;;;;;17.38;6.80;;;1.00;99.90;;;;;;5027901;28;20035;-69
2024/01/12 05:19:25;;;;;;;16.60;7.22;;;1.00;99.90;;;;;;5036046;28;20497;-70
2024/01/12 05:21:50;;;;;;;16.48;6.43;;;1.00;99.90;;;;;;5044571;28;20505;-70
2024/01/12 05:24:16;;;;;;;18.80;7.32;;;1.10;99.90;;;;;;5016360;28;20041;-70
2024/01/12 05:26:43;;;;;;;17.42;7.47;;;1.10;99.90;;;;;;5014265;28;20599;-72
2024/01/12 05:29:10;;;;;;;22.48;8.50;;;1.10;99.90;;;;;;5036279;28;20401;-69
2024/01/12 05:31:35;;;;;;;22.58;7.55;;;1.10;99.90;;;;;;5029694;28;20492;-69
2024/01/12 05:34:01;;;;;;;22.33;7.32;;;1.10;99.90;;;;;;5037766;28;20065;-70
2024/01/12 05:36:26;;;;;;;23.52;8.27;;;1.20;99.90;;;;;;5028211;28;20050;-71
2024/01/12 05:38:53;;;;;;;20.50;7.60;;;1.10;99.90;;;;;;5027075;28;20049;-70
2024/01/12 05:41:18;;;;;;;16.60;7.47;;;1.10;1.00;;;;;;5031572;28;21119;-70
2024/01/12 05:43:44;;;;;;;16.27;6.97;;;1.10;1.00;;;;;;5038731;28;20139;-70
2024/01/12 05:46:10;;;;;;;30.70;8.20;;;1.10;1.00;;;;;;5042352;28;20764;-70
2024/01/12 05:48:35;;;;;;;21.48;8.15;;;1.10;1.00;;;;;;5032189;28;20037;-69
2024/01/12 05:51:01;;;;;;;20.42;7.13;;;1.00;1.00;;;;;;5034724;28;20039;-70
2024/01/12 05:53:27;;;;;;;14.88;7.50;;;1.10;1.00;;;;;;5031476;28;20095;-69
2024/01/12 05:55:53;;;;;;;19.25;7.13;;;1.10;1.00;;;;;;5039994;28;20037;-70
2024/01/12 05:58:19;;;;;;;25.42;7.30;;;1.10;1.00;;;;;;5031268;28;20848;-69
2024/01/12 06:00:46;;;;;;;19.50;7.57;;;1.10;1.00;;;;;;5035514;28;20543;-70
2024/01/12 06:03:12;;;;;;;23.27;8.18;;;1.10;1.00;;;;;;5038043;28;20649;-69
2024/01/12 06:05:38;;;;;;;24.33;7.43;;;1.20;1.00;;;;;;5034680;28;20047;-70
2024/01/12 06:08:04;;;;;;;29.75;8.35;;;1.20;1.00;;;;;;5029979;28;20045;-70
2024/01/12 06:10:30;;;;;;;19.20;8.13;;;1.10;1.00;;;;;;5032951;28;20056;-69
2024/01/12 06:12:55;;;;;;;27.10;8.98;;;1.10;1.00;;;;;;5039508;28;20661;-70
2024/01/12 06:15:21;;;;;;;19.38;6.43;;;1.10;1.00;;;;;;5032020;28;20037;-70
2024/01/12 06:17:46;;;;;;;21.42;7.32;;;1.10;1.00;;;;;;5016660;28;20037;-69
2024/01/12 06:20:12;;;;;;;21.17;7.30;;;1.20;1.00;;;;;;5021363;28;20095;-69
2024/01/12 06:22:38;;;;;;;21.80;7.65;;;1.20;1.00;;;;;;5033751;28;20033;-68
2024/01/12 06:25:04;;;;;;;19.20;7.00;;;1.20;1.00;;;;;;5036951;28;20473;-69
2024/01/12 06:27:29;;;;;;;18.10;6.78;;;1.20;1.00;;;;;;5024394;28;20227;-69
2024/01/12 06:29:55;;;;;;;24.92;9.05;;;1.20;1.00;;;;;;5036590;28;20036;-70
2024/01/12 06:32:21;;;;;;;18.00;7.05;;;1.20;1.00;;;;;;5030417;28;20049;-69
2024/01/12 06:34:47;;;;;;;23.63;7.72;;;1.20;1.00;;;;;;5030981;28;20143;-69
2024/01/12 06:37:12;;;;;;;21.20;8.05;;;1.20;1.00;;;;;;5028925;28;20047;-69
2024/01/12 06:39:39;;;;;;;16.02;6.82;;;1.20;1.00;;;;;;5030858;28;20048;-70
2024/01/12 06:42:05;;;;;;;24.90;8.48;;;1.20;1.00;;;;;;5031064;28;20045;-69
2024/01/12 06:44:31;;;;;;;25.08;7.60;;;1.30;1.00;;;;;;5016856;28;20053;-69
2024/01/12 06:46:56;;;;;;;22.70;7.43;;;1.30;1.00;;;;;;5026989;28;20532;-71
2024/01/12 06:49:22;;;;;;;18.98;7.45;;;1.30;1.00;;;;;;5030501;28;20069;-70
2024/01/12 06:51:47;;;;;;;30.20;9.98;;;1.30;1.00;;;;;;5034770;28;20037;-69
2024/01/12 06:54:13;;;;;;;25.55;9.38;;;1.30;1.00;;;;;;5036157;28;20036;-69
2024/01/12 06:56:39;;;;;;;26.48;9.25;;;1.30;1.00;;;;;;5016178;28;20072;-70
2024/01/12 06:59:05;;;;;;;27.42;10.30;;;1.30;1.00;;;;;;5036972;28;20037;-70
2024/01/12 07:01:31;;;;;;;29.00;9.07;;;1.40;1.00;;;;;;5027467;28;20676;-70
2024/01/12 07:03:57;;;;;;;19.77;8.65;;;1.40;1.00;;;;;;5037676;28;20487;-70
2024/01/12 07:06:22;;;;;;;24.02;9.20;;;1.40;1.00;;;;;;5012408;28;20045;-69
2024/01/12 07:08:48;;;;;;;25.73;9.88;;;1.40;1.00;;;;;;5035665;28;20033;-69
2024/01/12 07:11:14;;;;;;;27.33;10.40;;;1.40;1.00;;;;;;5031555;28;20025;-70
2024/01/12 07:13:39;;;;;;;34.28;10.18;;;1.40;1.00;;;;;;5033165;28;20049;-70
2024/01/12 07:16:05;;;;;;;26.75;9.35;;;1.40;1.00;;;;;;5025386;28;20041;-69
2024/01/12 07:18:31;;;;;;;29.50;9.77;;;1.40;1.00;;;;;;5026617;28;20069;-68
2024/01/12 07:21:02;;;;;;;28.20;9.18;;;1.50;1.00;;;;;;5025955;28;20045;-68
2024/01/12 07:23:30;;;;;;;36.78;10.05;;;1.50;1.00;;;;;;5041313;28;20047;-70
2024/01/12 07:25:57;;;;;;;39.20;10.40;;;1.50;1.00;;;;;;5030625;28;20116;-70
2024/01/12 07:28:23;;;;;;;32.75;9.43;;;1.50;1.00;;;;;;5035969;28;20560;-69
2024/01/12 07:30:49;;;;;;;35.78;9.50;;;1.60;1.00;;;;;;5030230;28;20427;-69
2024/01/12 07:33:14;;;;;;;32.53;9.20;;;1.60;1.00;;;;;;5030150;28;20033;-72
2024/01/12 07:35:40;;;;;;;31.65;9.07;;;1.60;1.00;;;;;;5038952;28;20040;-69
2024/01/12 07:38:06;;;;;;;32.08;8.15;;;1.60;1.00;;;;;;5009379;28;20061;-70
2024/01/12 07:40:31;;;;;;;28.33;9.07;;;1.60;1.00;;;;;;5020714;28;20036;-70
2024/01/12 07:42:57;;;;;;;21.33;8.25;;;1.60;1.00;;;;;;5035821;28;20037;-70
2024/01/12 07:45:22;;;;;;;24.85;8.00;;;1.60;1.00;;;;;;5038921;28;20132;-70
2024/01/12 07:47:48;;;;;;;41.30;9.88;;;1.70;1.00;;;;;;5029238;28;20052;-70
2024/01/12 07:50:14;;;;;;;25.90;7.38;;;1.70;1.00;;;;;;5036556;28;20033;-69
2024/01/12 07:52:39;;;;;;;23.95;8.85;;;1.70;1.00;;;;;;5028627;28;20159;-70
2024/01/12 07:55:05;;;;;;;24.40;8.70;;;1.70;1.00;;;;;;5040247;28;20404;-70
2024/01/12 07:57:31;;;;;;;31.95;7.75;;;1.70;1.00;;;;;;5031930;28;20029;-70
2024/01/12 07:59:57;;;;;;;22.38;7.78;;;1.80;1.00;;;;;;5043057;28;20418;-70
2024/01/12 08:02:23;;;;;;;30.42;7.97;;;1.80;1.00;;;;;;5028706;28;20049;-71
2024/01/12 08:04:49;;;;;;;21.17;7.15;;;1.80;1.00;;;;;;5039682;28;20034;-70
2024/01/12 08:07:15;;;;;;;24.70;8.48;;;1.80;1.00;;;;;;5069002;28;20627;-70
2024/01/12 08:09:40;;;;;;;24.25;7.72;;;1.80;1.00;;;;;;5054552;28;20052;-71
2024/01/12 08:12:08;;;;;;;18.08;8.48;;;1.80;1.00;;;;;;5050153;28;20386;-70
2024/01/12 08:14:34;;;;;;;22.90;7.78;;;1.80;1.00;;;;;;5040833;28;20507;-70
2024/01/12 08:17:00;;;;;;;22.30;7.65;;;1.80;1.00;;;;;;5049277;28;20078;-72
2024/01/12 08:19:25;;;;;;;27.50;7.95;;;1.80;1.00;;;;;;5021388;28;20033;-68
2024/01/12 08:21:51;;;;;;;24.08;8.40;;;1.80;1.00;;;;;;5043930;28;20041;-71
2024/01/12 08:24:16;;;;;;;27.55;8.18;;;1.80;1.00;;;;;;5048133;28;20048;-70
2024/01/12 08:26:46;;;;;;;23.55;7.65;;;1.80;1.00;;;;;;5041674;28;20504;-70
2024/01/12 08:29:12;;;;;;;26.23;7.72;;;1.80;1.00;;;;;;5044386;28;20496;-70
2024/01/12 08:31:38;;;;;;;19.85;7.95;;;1.90;1.00;;;;;;5047838;28;20099;-71
2024/01/12 08:34:04;;;;;;;25.42;8.00;;;1.90;1.00;;;;;;5039859;28;20469;-71
2024/01/12 08:36:29;;;;;;;16.13;6.65;;;1.90;1.00;;;;;;5041274;28;20060;-70
2024/01/12 08:38:55;;;;;;;24.25;8.02;;;1.90;99.90;;;;;;5033731;28;20065;-70
2024/01/12 08:41:20;;;;;;;26.33;7.80;;;1.90;1.00;;;;;;5020182;28;20391;-70
2024/01/12 08:43:46;;;;;;;23.10;7.35;;;1.90;1.00;;;;;;5030502;28;20049;-70
2024/01/12 08:46:14;;;;;;;23.30;7.72;;;1.90;99.90;;;;;;5041104;28;20044;-71
2024/01/12 08:48:41;;;;;;;19.02;7.22;;;1.90;99.90;;;;;;5028462;28;20041;-71
2024/01/12 08:51:07;;;;;;;25.48;8.38;;;2.00;99.90;;;;;;5035566;28;20041;-69
2024/01/12 08:53:33;;;;;;;22.75;6.65;;;1.90;99.90;;;;;;5040761;28;20059;-70
2024/01/12 08:55:58;;;;;;;17.13;6.53;;;2.00;99.90;;;;;;5032109;28;20503;-71
2024/01/12 08:58:24;;;;;;;17.83;6.82;;;1.90;99.90;;;;;;5036673;28;20037;-70
2024/01/12 09:00:49;;;;;;;21.75;7.35;;;2.00;99.90;;;;;;5040398;28;20044;-70
2024/01/12 09:03:15;;;;;;;20.98;7.07;;;2.00;99.90;;;;;;5026200;28;20436;-71
2024/01/12 09:05:41;;;;;;;23.10;7.13;;;2.00;99.90;;;;;;5029218;28;20091;-70
2024/01/12 09:08:06;;;;;;;17.20;6.25;;;2.10;99.90;;;;;;5027652;28;20714;-70
2024/01/12 09:10:32;;;;;;;21.08;7.72;;;2.10;99.90;;;;;;5039200;28;20174;-71
2024/01/12 09:12:57;;;;;;;25.13;7.63;;;2.10;99.90;;;;;;5031456;28;20039;-71
2024/01/12 09:15:23;;;;;;;23.02;7.05;;;2.10;99.90;;;;;;5034108;28;20041;-70
2024/01/12 09:17:49;;;;;;;25.20;7.30;;;2.10;99.90;;;;;;5050702;28;20372;-70
2024/01/12 09:20:18;;;;;;;21.33;6.80;;;2.20;99.90;;;;;;5043277;28;20138;-70
2024/01/12 09:22:45;;;;;;;22.85;7.95;;;2.20;99.90;;;;;;5035252;28;20029;-68
2024/01/12 09:25:10;;;;;;;35.33;9.18;;;2.20;99.90;;;;;;5051971;28;20051;-69
2024/01/12 09:27:36;;;;;;;21.48;9.48;;;2.30;99.90;;;;;;5051870;28;20041;-69
2024/01/12 09:30:02;;;;;;;25.65;12.55;;;2.30;99.90;;;;;;5029826;28;20037;-68
2024/01/12 09:32:27;;;;;;;25.75;8.07;;;2.30;99.90;;;;;;5026508;28;20137;-69
2024/01/12 09:34:53;;;;;;;18.15;7.63;;;2.40;99.90;;;;;;5032762;28;20132;-69
2024/01/12 09:37:18;;;;;;;22.00;8.27;;;2.40;99.90;;;;;;5031161;28;20041;-69
2024/01/12 09:39:47;;;;;;;22.88;7.35;;;2.50;99.90;;;;;;5016114;28;20041;-69
2024/01/12 09:42:15;;;;;;;18.52;6.00;;;2.50;99.90;;;;;;5018093;28;20116;-69
2024/01/12 09:44:45;;;;;;;20.58;6.65;;;2.50;99.90;;;;;;5047693;28;20071;-69
2024/01/12 09:47:12;;;;;;;;;;;2.60;99.90;;;;;;5014861;28;20037;-69
2024/01/12 09:49:38;;;;;;;18.20;6.25;;;2.60;99.90;;;;;;5031866;28;19921;-69
2024/01/12 09:52:07;;;;;;;19.90;6.05;;;2.60;99.90;;;;;;5039806;28;20072;-69
2024/01/12 09:54:34;;;;;;;14.75;6.22;;;2.70;99.90;;;;;;5038268;28;20037;-68
2024/01/12 09:57:03;;;;;;;14.15;6.50;;;2.70;99.90;;;;;;5017755;28;20471;-69
2024/01/12 09:59:29;;;;;;;23.75;6.20;;;2.70;99.90;;;;;;5031762;28;20849;-69
2024/01/12 10:01:56;;;;;;;22.27;6.22;;;2.70;99.90;;;;;;5042788;28;20166;-69
2024/01/12 10:04:22;;;;;;;21.67;6.45;;;2.70;99.90;;;;;;5035752;28;20124;-68
2024/01/12 10:06:47;;;;;;;21.67;6.72;;;2.70;99.90;;;;;;5031919;28;20569;-68
2024/01/12 10:09:13;;;;;;;15.95;5.68;;;2.70;99.90;;;;;;5033075;28;20040;-71
2024/01/12 10:11:42;;;;;;;15.57;5.90;;;2.70;99.90;;;;;;5020581;28;20548;-69
2024/01/12 10:14:07;;;;;;;16.00;5.25;;;2.80;99.90;;;;;;5030786;28;20136;-68
2024/01/12 10:16:33;;;;;;;13.52;4.65;;;2.80;99.90;;;;;;5030928;28;20457;-68
2024/01/12 10:18:59;;;;;;;15.70;5.45;;;2.80;99.90;;;;;;5043712;28;20045;-68
2024/01/12 10:21:25;;;;;;;17.08;4.95;;;2.90;99.90;;;;;;5051689;28;20040;-68
2024/01/12 10:24:02;;;;;;;20.30;4.97;;;2.90;99.90;;;;;;5050957;28;20048;-69
2024/01/12 10:26:28;;;;;;;15.57;4.93;;;3.00;99.90;;;;;;5050956;28;20045;-69
2024/01/12 10:28:54;;;;;;;19.33;4.75;;;3.00;99.90;;;;;;5033170;28;20410;-69
2024/01/12 10:31:20;;;;;;;13.73;5.25;;;3.10;99.90;;;;;;5033260;28;20067;-69
2024/01/12 10:33:46;;;;;;;12.13;4.07;;;3.10;99.90;;;;;;5031007;28;20052;-68
2024/01/12 10:36:18;;;;;;;19.23;4.30;;;3.20;99.90;;;;;;5041757;28;20079;-69
2024/01/12 10:38:45;;;;;;;17.05;4.30;;;3.20;99.90;;;;;;5033313;28;20045;-69
2024/01/12 10:41:11;;;;;;;23.23;4.05;;;3.30;99.90;;;;;;5036131;28;20182;-69
2024/01/12 10:43:38;;;;;;;21.10;3.95;;;3.40;99.90;;;;;;5034341;28;20041;-68
2024/01/12 10:46:16;;;;;;;12.60;3.80;;;3.40;99.90;;;;;;5014278;28;20038;-69
2024/01/12 10:48:51;;;;;;;18.63;4.40;;;3.50;99.90;;;;;;5034824;28;20048;-67
2024/01/12 10:51:21;;;;;;;11.88;4.03;;;3.50;99.90;;;;;;5032983;28;20128;-68
2024/01/12 10:54:00;;;;;;;15.67;3.93;;;3.60;99.90;;;;;;5043938;28;20029;-68
2024/01/12 10:56:27;;;;;;;15.75;4.22;;;3.70;99.90;;;;;;5036016;28;20284;-68
2024/01/12 10:58:54;;;;;;;20.35;4.15;;;3.80;99.90;;;;;;5029523;28;20037;-68
2024/01/12 11:01:20;;;;;;;18.25;4.88;;;3.80;99.90;;;;;;5030300;28;20052;-69
2024/01/12 11:03:47;;;;;;;18.15;4.07;;;3.80;99.90;;;;;;5030415;28;20516;-68
2024/01/12 11:06:16;;;;;;;20.08;4.60;;;3.90;99.90;;;;;;5041129;28;20045;-69
2024/01/12 11:08:43;;;;;;;27.70;4.63;;;3.90;99.90;;;;;;5033018;28;20056;-69
2024/01/12 11:11:11;;;;;;;13.68;3.38;;;3.90;99.90;;;;;;5028915;28;20046;-69
2024/01/12 11:13:37;;;;;;;13.82;3.78;;;4.00;99.90;;;;;;5033729;28;20044;-68
2024/01/12 11:16:03;;;;;;;13.80;3.03;;;4.00;99.90;;;;;;5029106;28;20632;-68
2024/01/12 11:18:29;;;;;;;13.43;3.42;;;4.10;99.90;;;;;;5032242;28;20037;-69
2024/01/12 11:21:02;;;;;;;13.02;2.80;;;4.10;99.90;;;;;;5037984;28;20040;-68
2024/01/12 11:23:28;;;;;;;12.68;2.58;;;4.10;99.90;;;;;;5030112;28;20045;-68
2024/01/12 11:25:54;;;;;;;14.00;3.38;;;4.10;99.90;;;;;;5031626;28;20083;-68
2024/01/12 11:28:19;;;;;;;11.07;2.58;;;4.10;99.90;;;;;;5033604;28;20056;-69
2024/01/12 11:30:49;;;;;;;16.48;3.30;;;4.10;99.90;;;;;;5036196;28;20057;-68
2024/01/12 11:33:17;;;;;;;17.38;2.83;;;4.10;99.90;;;;;;5030483;28;20037;-68
2024/01/12 11:35:47;;;;;;;9.85;2.20;;;4.10;99.90;;;;;;5031812;28;20044;-68
2024/01/12 11:38:12;;;;;;;11.60;2.53;;;4.10;99.90;;;;;;5034609;28;20056;-68
2024/01/12 11:40:42;;;;;;;11.52;2.33;;;4.10;99.90;;;;;;5050728;28;20275;-69
2024/01/12 11:43:16;;;;;;;11.82;2.30;;;4.10;99.90;;;;;;5040169;28;20048;-68
2024/01/12 11:45:43;;;;;;;12.63;2.50;;;4.10;99.90;;;;;;5026006;28;20037;-68
2024/01/12 11:48:14;;;;;;;11.57;2.38;;;4.10;99.90;;;;;;5030229;28;20549;-69
2024/01/12 11:50:41;;;;;;;11.15;2.58;;;4.20;99.90;;;;;;5032670;28;20046;-69
2024/01/12 11:53:08;;;;;;;18.92;3.95;;;4.20;99.90;;;;;;5035540;28;20537;-68
2024/01/12 11:55:36;;;;;;;14.90;3.20;;;4.20;99.90;;;;;;5031217;28;20037;-68
2024/01/12 11:58:02;;;;;;;12.25;3.00;;;4.20;99.90;;;;;;5039549;28;20040;-68
2024/01/12 12:00:27;;;;;;;16.95;4.63;;;4.30;99.90;;;;;;5037259;28;20060;-69
2024/01/12 12:02:53;;;;;;;10.88;3.45;;;4.30;99.90;;;;;;5031843;28;20462;-68
2024/01/12 12:05:19;;;;;;;13.90;3.35;;;4.30;99.90;;;;;;5022182;28;20128;-69
2024/01/12 12:07:45;;;;;;;17.65;3.58;;;4.30;99.90;;;;;;5029225;28;20385;-69
2024/01/12 12:10:10;;;;;;;8.20;2.33;;;4.30;99.90;;;;;;5029736;28;20045;-68
2024/01/12 12:12:36;;;;;;;12.80;2.47;;;4.40;99.90;;;;;;5035739;28;20404;-68
2024/01/12 12:15:12;;;;;;;16.77;2.90;;;4.30;99.90;;;;;;5039447;28;20033;-68
2024/01/12 12:17:41;;;;;;;10.93;2.60;;;4.40;99.90;;;;;;5035106;28;20122;-68
2024/01/12 12:20:10;;;;;;;10.27;2.38;;;4.40;99.90;;;;;;5035623;28;20362;-68
2024/01/12 12:22:38;;;;;;;14.02;2.35;;;4.40;99.90;;;;;;5032909;28;20049;-68
2024/01/12 12:25:09;;;;;;;17.85;2.75;;;4.40;99.90;;;;;;5033131;28;20047;-68
2024/01/12 12:27:39;;;;;;;12.43;2.50;;;4.40;99.90;;;;;;5040135;28;20037;-68
2024/01/12 12:30:07;;;;;;;8.15;2.30;;;4.40;99.90;;;;;;5048728;28;20103;-68
2024/01/12 12:32:33;;;;;;;12.13;3.03;;;4.50;99.90;;;;;;5039618;28;20080;-68
2024/01/12 12:34:59;;;;;;;13.98;2.70;;;4.50;99.90;;;;;;5041484;28;20381;-67
2024/01/12 12:37:25;;;;;;;16.40;2.92;;;4.50;99.90;;;;;;5030438;28;20417;-68
2024/01/12 12:39:50;;;;;;;18.55;3.40;;;4.50;99.90;;;;;;5039406;28;20626;-68